sensor_id;sensor_type;location;lat;lon;timestamp;pressure;altitude;pressure_sealevel;temperature;humidity
66385;BME280;53426;55.872;37.462;2023-05-09T00:00:29;100788.94;;;4.08;47.22
66385;BME280;53426;55.872;37.462;2023-05-09T00:02:55;100792.41;;;4.08;47.60
66385;BME280;53426;55.872;37.462;2023-05-09T00:05:21;100786.41;;;4.05;47.91
66385;BME280;53426;55.872;37.462;2023-05-09T00:07:47;100791.72;;;4.03;48.72
66385;BME280;53426;55.872;37.462;2023-05-09T00:10:13;100763.34;;;3.91;50.24
66385;BME280;53426;55.872;37.462;2023-05-09T00:12:46;100788.25;;;4.03;49.78
66385;BME280;53426;55.872;37.462;2023-05-09T00:15:14;100784.94;;;3.98;49.15
66385;BME280;53426;55.872;37.462;2023-05-09T00:17:40;100784.81;;;4.01;49.34
66385;BME280;53426;55.872;37.462;2023-05-09T00:20:07;100789.31;;;3.97;49.89
66385;BME280;53426;55.872;37.462;2023-05-09T00:22:38;100774.00;;;3.87;50.30
66385;BME280;53426;55.872;37.462;2023-05-09T00:25:07;100795.75;;;3.89;50.32
66385;BME280;53426;55.872;37.462;2023-05-09T00:27:33;100797.50;;;3.88;50.05
66385;BME280;53426;55.872;37.462;2023-05-09T00:30:00;100801.97;;;3.86;50.35
66385;BME280;53426;55.872;37.462;2023-05-09T00:32:26;100789.25;;;3.75;50.45
66385;BME280;53426;55.872;37.462;2023-05-09T00:34:53;100796.03;;;3.81;50.78
66385;BME280;53426;55.872;37.462;2023-05-09T00:37:20;100800.47;;;3.79;51.06
66385;BME280;53426;55.872;37.462;2023-05-09T00:39:49;100803.22;;;3.76;50.23
66385;BME280;53426;55.872;37.462;2023-05-09T00:42:15;100796.31;;;3.73;51.40
66385;BME280;53426;55.872;37.462;2023-05-09T00:44:41;100798.88;;;3.75;51.95
66385;BME280;53426;55.872;37.462;2023-05-09T00:47:07;100797.22;;;3.72;52.78
66385;BME280;53426;55.872;37.462;2023-05-09T00:49:33;100791.50;;;3.61;51.33
66385;BME280;53426;55.872;37.462;2023-05-09T00:51:59;100795.19;;;3.56;52.63
66385;BME280;53426;55.872;37.462;2023-05-09T00:54:27;100796.00;;;3.58;52.09
66385;BME280;53426;55.872;37.462;2023-05-09T00:56:53;100795.47;;;3.48;51.21
66385;BME280;53426;55.872;37.462;2023-05-09T00:59:19;100787.72;;;3.45;51.78
66385;BME280;53426;55.872;37.462;2023-05-09T01:01:46;100806.84;;;3.47;52.10
66385;BME280;53426;55.872;37.462;2023-05-09T01:04:13;100778.59;;;3.32;52.35
66385;BME280;53426;55.872;37.462;2023-05-09T01:12:02;100801.00;;;3.39;55.16
66385;BME280;53426;55.872;37.462;2023-05-09T01:14:46;100790.88;;;3.30;55.58
66385;BME280;53426;55.872;37.462;2023-05-09T01:17:30;100806.44;;;3.33;55.45
66385;BME280;53426;55.872;37.462;2023-05-09T01:20:19;100784.28;;;3.18;54.69
66385;BME280;53426;55.872;37.462;2023-05-09T01:23:00;100809.06;;;3.33;54.37
66385;BME280;53426;55.872;37.462;2023-05-09T01:25:41;100775.69;;;3.15;53.31
66385;BME280;53426;55.872;37.462;2023-05-09T01:31:05;100786.16;;;3.15;53.38
66385;BME280;53426;55.872;37.462;2023-05-09T01:33:36;100808.44;;;3.26;52.83
66385;BME280;53426;55.872;37.462;2023-05-09T01:36:06;100793.03;;;3.17;53.01
66385;BME280;53426;55.872;37.462;2023-05-09T01:38:36;100793.00;;;3.19;53.63
66385;BME280;53426;55.872;37.462;2023-05-09T01:41:06;100808.53;;;3.23;52.54
66385;BME280;53426;55.872;37.462;2023-05-09T01:43:36;100811.94;;;3.27;52.84
66385;BME280;53426;55.872;37.462;2023-05-09T01:46:04;100809.34;;;3.25;57.76
66385;BME280;53426;55.872;37.462;2023-05-09T01:48:30;100814.41;;;3.30;56.56
66385;BME280;53426;55.872;37.462;2023-05-09T01:50:59;100819.69;;;3.28;54.48
66385;BME280;53426;55.872;37.462;2023-05-09T01:53:27;100818.75;;;3.31;56.77
66385;BME280;53426;55.872;37.462;2023-05-09T01:55:55;100798.97;;;3.22;57.65
66385;BME280;53426;55.872;37.462;2023-05-09T01:58:24;100815.25;;;3.32;58.14
66385;BME280;53426;55.872;37.462;2023-05-09T02:00:50;100782.63;;;3.16;59.02
66385;BME280;53426;55.872;37.462;2023-05-09T02:03:21;100801.50;;;3.25;57.71
66385;BME280;53426;55.872;37.462;2023-05-09T02:05:49;100813.41;;;3.34;54.81
66385;BME280;53426;55.872;37.462;2023-05-09T02:08:17;100810.50;;;3.43;54.34
66385;BME280;53426;55.872;37.462;2023-05-09T02:10:48;100816.41;;;3.48;56.81
66385;BME280;53426;55.872;37.462;2023-05-09T02:13:14;100804.97;;;3.51;54.78
66385;BME280;53426;55.872;37.462;2023-05-09T02:15:41;100801.41;;;3.53;56.46
66385;BME280;53426;55.872;37.462;2023-05-09T02:18:07;100798.78;;;3.53;55.90
66385;BME280;53426;55.872;37.462;2023-05-09T02:20:33;100811.47;;;3.65;58.67
66385;BME280;53426;55.872;37.462;2023-05-09T02:23:00;100799.34;;;3.61;58.16
66385;BME280;53426;55.872;37.462;2023-05-09T02:25:26;100813.78;;;3.73;56.17
66385;BME280;53426;55.872;37.462;2023-05-09T02:27:54;100809.19;;;3.79;56.93
66385;BME280;53426;55.872;37.462;2023-05-09T02:30:23;100807.13;;;3.88;57.74
66385;BME280;53426;55.872;37.462;2023-05-09T02:33:11;100789.03;;;3.82;57.44
66385;BME280;53426;55.872;37.462;2023-05-09T02:35:43;100817.97;;;4.02;58.17
66385;BME280;53426;55.872;37.462;2023-05-09T02:38:12;100799.69;;;4.00;58.67
66385;BME280;53426;55.872;37.462;2023-05-09T02:40:41;100814.84;;;4.15;59.05
66385;BME280;53426;55.872;37.462;2023-05-09T02:43:08;100819.00;;;4.21;60.15
66385;BME280;53426;55.872;37.462;2023-05-09T02:45:34;100814.44;;;4.26;59.32
66385;BME280;53426;55.872;37.462;2023-05-09T02:48:01;100813.41;;;4.30;60.38
66385;BME280;53426;55.872;37.462;2023-05-09T02:50:33;100827.06;;;4.38;60.76
66385;BME280;53426;55.872;37.462;2023-05-09T02:52:59;100832.03;;;4.46;60.32
66385;BME280;53426;55.872;37.462;2023-05-09T02:55:25;100832.72;;;4.51;60.47
66385;BME280;53426;55.872;37.462;2023-05-09T02:57:51;100818.56;;;4.55;60.94
66385;BME280;53426;55.872;37.462;2023-05-09T03:00:18;100831.38;;;4.62;55.62
66385;BME280;53426;55.872;37.462;2023-05-09T03:02:44;100816.38;;;4.66;59.53
66385;BME280;53426;55.872;37.462;2023-05-09T03:05:15;100826.44;;;4.77;59.63
66385;BME280;53426;55.872;37.462;2023-05-09T03:07:41;100809.66;;;4.81;59.75
66385;BME280;53426;55.872;37.462;2023-05-09T03:10:09;100823.16;;;4.93;59.76
66385;BME280;53426;55.872;37.462;2023-05-09T03:12:40;100828.63;;;5.09;59.73
66385;BME280;53426;55.872;37.462;2023-05-09T03:15:08;100833.69;;;5.14;59.38
66385;BME280;53426;55.872;37.462;2023-05-09T03:17:37;100821.31;;;5.17;58.86
66385;BME280;53426;55.872;37.462;2023-05-09T03:20:04;100820.97;;;5.25;57.30
66385;BME280;53426;55.872;37.462;2023-05-09T03:22:32;100836.81;;;5.43;55.06
66385;BME280;53426;55.872;37.462;2023-05-09T03:25:27;100845.97;;;5.55;54.00
66385;BME280;53426;55.872;37.462;2023-05-09T03:27:53;100845.59;;;5.63;53.15
66385;BME280;53426;55.872;37.462;2023-05-09T03:30:19;100811.47;;;5.83;52.48
66385;BME280;53426;55.872;37.462;2023-05-09T03:32:47;100831.53;;;7.15;49.95
66385;BME280;53426;55.872;37.462;2023-05-09T03:35:13;100824.03;;;8.42;47.42
66385;BME280;53426;55.872;37.462;2023-05-09T03:37:39;100829.97;;;9.68;44.24
66385;BME280;53426;55.872;37.462;2023-05-09T03:40:07;100825.00;;;10.63;41.43
66385;BME280;53426;55.872;37.462;2023-05-09T03:42:41;100830.78;;;11.75;39.93
66385;BME280;53426;55.872;37.462;2023-05-09T03:45:15;100798.34;;;12.46;36.32
66385;BME280;53426;55.872;37.462;2023-05-09T03:47:43;100821.50;;;13.04;35.46
66385;BME280;53426;55.872;37.462;2023-05-09T03:50:10;100834.69;;;13.53;34.53
66385;BME280;53426;55.872;37.462;2023-05-09T03:52:36;100826.34;;;14.04;34.25
66385;BME280;53426;55.872;37.462;2023-05-09T03:55:03;100834.84;;;14.53;33.24
66385;BME280;53426;55.872;37.462;2023-05-09T03:57:33;100832.91;;;15.21;31.99
66385;BME280;53426;55.872;37.462;2023-05-09T04:00:01;100829.00;;;15.77;31.18
66385;BME280;53426;55.872;37.462;2023-05-09T04:02:41;100836.75;;;16.31;30.57
66385;BME280;53426;55.872;37.462;2023-05-09T04:05:15;100837.03;;;16.59;29.84
66385;BME280;53426;55.872;37.462;2023-05-09T04:07:42;100824.81;;;16.76;29.43
66385;BME280;53426;55.872;37.462;2023-05-09T04:10:10;100828.00;;;17.19;28.76
66385;BME280;53426;55.872;37.462;2023-05-09T04:12:44;100840.00;;;17.44;28.93
66385;BME280;53426;55.872;37.462;2023-05-09T04:15:10;100847.31;;;17.80;27.86
66385;BME280;53426;55.872;37.462;2023-05-09T04:17:36;100816.94;;;18.09;27.08
66385;BME280;53426;55.872;37.462;2023-05-09T04:20:04;100824.34;;;18.61;26.12
66385;BME280;53426;55.872;37.462;2023-05-09T04:28:36;100824.06;;;20.06;23.11
66385;BME280;53426;55.872;37.462;2023-05-09T04:31:03;100836.91;;;20.20;22.79
66385;BME280;53426;55.872;37.462;2023-05-09T04:33:31;100838.38;;;20.32;22.16
66385;BME280;53426;55.872;37.462;2023-05-09T04:36:01;100835.25;;;20.95;21.19
66385;BME280;53426;55.872;37.462;2023-05-09T04:38:28;100834.44;;;21.03;20.23
66385;BME280;53426;55.872;37.462;2023-05-09T04:40:55;100836.81;;;21.14;19.88
66385;BME280;53426;55.872;37.462;2023-05-09T04:43:21;100841.25;;;21.31;19.96
66385;BME280;53426;55.872;37.462;2023-05-09T04:45:47;100838.38;;;21.16;20.01
66385;BME280;53426;55.872;37.462;2023-05-09T04:48:15;100829.63;;;21.39;19.24
66385;BME280;53426;55.872;37.462;2023-05-09T04:50:41;100835.41;;;21.60;19.73
66385;BME280;53426;55.872;37.462;2023-05-09T04:53:07;100835.41;;;21.60;19.08
66385;BME280;53426;55.872;37.462;2023-05-09T04:55:34;100828.97;;;21.61;19.40
66385;BME280;53426;55.872;37.462;2023-05-09T04:58:01;100829.47;;;21.89;18.70
66385;BME280;53426;55.872;37.462;2023-05-09T05:00:27;100822.19;;;22.30;18.77
66385;BME280;53426;55.872;37.462;2023-05-09T05:02:53;100831.63;;;22.65;18.27
66385;BME280;53426;55.872;37.462;2023-05-09T05:05:23;100831.91;;;23.17;17.75
66385;BME280;53426;55.872;37.462;2023-05-09T05:07:49;100839.00;;;23.86;17.21
66385;BME280;53426;55.872;37.462;2023-05-09T05:10:20;100839.63;;;24.11;17.11
66385;BME280;53426;55.872;37.462;2023-05-09T05:12:52;100831.88;;;24.67;16.36
66385;BME280;53426;55.872;37.462;2023-05-09T05:15:19;100831.38;;;25.07;16.12
66385;BME280;53426;55.872;37.462;2023-05-09T05:17:48;100841.03;;;24.80;15.96
66385;BME280;53426;55.872;37.462;2023-05-09T05:20:18;100809.16;;;24.97;15.83
66385;BME280;53426;55.872;37.462;2023-05-09T05:22:45;100841.22;;;25.72;15.41
66385;BME280;53426;55.872;37.462;2023-05-09T05:31:21;100820.47;;;25.64;14.84
66385;BME280;53426;55.872;37.462;2023-05-09T05:33:46;100826.88;;;26.06;14.52
66385;BME280;53426;55.872;37.462;2023-05-09T05:36:13;100828.25;;;26.51;13.97
66385;BME280;53426;55.872;37.462;2023-05-09T05:38:40;100827.88;;;26.26;14.18
66385;BME280;53426;55.872;37.462;2023-05-09T05:41:06;100824.31;;;26.60;13.72
66385;BME280;53426;55.872;37.462;2023-05-09T05:43:36;100816.38;;;26.65;13.78
66385;BME280;53426;55.872;37.462;2023-05-09T05:46:02;100814.44;;;26.93;13.63
66385;BME280;53426;55.872;37.462;2023-05-09T05:48:31;100813.31;;;26.81;13.51
66385;BME280;53426;55.872;37.462;2023-05-09T05:50:58;100820.97;;;27.12;12.86
66385;BME280;53426;55.872;37.462;2023-05-09T05:53:26;100821.56;;;26.94;12.94
66385;BME280;53426;55.872;37.462;2023-05-09T05:56:26;100754.13;;;26.70;13.87
66385;BME280;53426;55.872;37.462;2023-05-09T05:59:19;100824.56;;;27.39;12.94
66385;BME280;53426;55.872;37.462;2023-05-09T06:01:44;100796.38;;;27.73;12.36
66385;BME280;53426;55.872;37.462;2023-05-09T06:04:13;100815.38;;;28.32;11.89
66385;BME280;53426;55.872;37.462;2023-05-09T06:09:28;100825.03;;;27.88;12.10
66385;BME280;53426;55.872;37.462;2023-05-09T06:11:57;100734.59;;;27.40;12.25
66385;BME280;53426;55.872;37.462;2023-05-09T06:14:24;100756.53;;;28.11;11.72
66385;BME280;53426;55.872;37.462;2023-05-09T06:17:01;100769.94;;;28.70;11.57
66385;BME280;53426;55.872;37.462;2023-05-09T06:19:28;100804.66;;;29.01;11.48
66385;BME280;53426;55.872;37.462;2023-05-09T06:21:54;100800.53;;;27.95;11.67
66385;BME280;53426;55.872;37.462;2023-05-09T06:24:20;100773.75;;;27.85;12.22
66385;BME280;53426;55.872;37.462;2023-05-09T06:26:52;100803.50;;;27.74;11.98
66385;BME280;53426;55.872;37.462;2023-05-09T06:29:22;100763.47;;;28.01;11.79
66385;BME280;53426;55.872;37.462;2023-05-09T06:32:13;100786.66;;;28.94;11.42
66385;BME280;53426;55.872;37.462;2023-05-09T06:34:39;100788.94;;;29.28;11.25
66385;BME280;53426;55.872;37.462;2023-05-09T06:37:06;100785.91;;;28.80;11.72
66385;BME280;53426;55.872;37.462;2023-05-09T06:39:32;100778.44;;;29.32;11.22
66385;BME280;53426;55.872;37.462;2023-05-09T06:41:58;100783.75;;;29.51;11.23
66385;BME280;53426;55.872;37.462;2023-05-09T06:45:01;100788.03;;;30.33;11.43
66385;BME280;53426;55.872;37.462;2023-05-09T06:47:28;100713.06;;;29.93;10.17
66385;BME280;53426;55.872;37.462;2023-05-09T06:49:54;100768.00;;;30.58;10.36
66385;BME280;53426;55.872;37.462;2023-05-09T06:52:26;100719.34;;;30.78;10.29
66385;BME280;53426;55.872;37.462;2023-05-09T06:55:01;100748.09;;;30.69;9.95
66385;BME280;53426;55.872;37.462;2023-05-09T06:57:31;100734.88;;;30.66;9.82
66385;BME280;53426;55.872;37.462;2023-05-09T07:00:22;100769.03;;;28.45;12.20
66385;BME280;53426;55.872;37.462;2023-05-09T07:07:11;100741.72;;;27.35;12.05
66385;BME280;53426;55.872;37.462;2023-05-09T07:09:37;100767.06;;;29.03;11.23
66385;BME280;53426;55.872;37.462;2023-05-09T07:12:03;100697.09;;;29.22;10.25
66385;BME280;53426;55.872;37.462;2023-05-09T07:17:58;100701.63;;;29.78;10.45
66385;BME280;53426;55.872;37.462;2023-05-09T07:20:52;100758.78;;;31.30;10.49
66385;BME280;53426;55.872;37.462;2023-05-09T07:23:18;100741.59;;;30.15;9.63
66385;BME280;53426;55.872;37.462;2023-05-09T07:25:44;100681.84;;;29.39;9.62
66385;BME280;53426;55.872;37.462;2023-05-09T07:28:10;100745.78;;;29.19;9.94
66385;BME280;53426;55.872;37.462;2023-05-09T07:30:37;100752.53;;;30.15;9.89
66385;BME280;53426;55.872;37.462;2023-05-09T07:33:03;100743.56;;;30.26;9.72
66385;BME280;53426;55.872;37.462;2023-05-09T07:35:29;100746.31;;;27.34;11.12
66385;BME280;53426;55.872;37.462;2023-05-09T07:37:55;100723.31;;;25.47;12.35
66385;BME280;53426;55.872;37.462;2023-05-09T07:40:21;100742.03;;;24.27;12.98
66385;BME280;53426;55.872;37.462;2023-05-09T07:42:50;100733.38;;;23.50;13.63
66385;BME280;53426;55.872;37.462;2023-05-09T07:45:19;100717.28;;;25.02;12.89
66385;BME280;53426;55.872;37.462;2023-05-09T07:47:47;100709.13;;;26.54;11.89
66385;BME280;53426;55.872;37.462;2023-05-09T07:50:13;100735.63;;;27.92;11.43
66385;BME280;53426;55.872;37.462;2023-05-09T07:52:39;100674.34;;;26.30;12.10
66385;BME280;53426;55.872;37.462;2023-05-09T07:55:05;100739.69;;;25.60;12.17
66385;BME280;53426;55.872;37.462;2023-05-09T07:57:32;100727.81;;;24.76;12.81
66385;BME280;53426;55.872;37.462;2023-05-09T07:59:58;100722.13;;;23.91;13.51
66385;BME280;53426;55.872;37.462;2023-05-09T08:02:23;100724.06;;;22.84;14.77
66385;BME280;53426;55.872;37.462;2023-05-09T08:04:52;100716.28;;;21.56;15.37
66385;BME280;53426;55.872;37.462;2023-05-09T08:07:18;100707.00;;;20.62;16.55
66385;BME280;53426;55.872;37.462;2023-05-09T08:09:44;100715.88;;;20.54;16.74
66385;BME280;53426;55.872;37.462;2023-05-09T08:12:11;100625.84;;;19.82;16.55
66385;BME280;53426;55.872;37.462;2023-05-09T08:14:37;100665.09;;;19.75;16.59
66385;BME280;53426;55.872;37.462;2023-05-09T08:17:03;100706.72;;;19.63;17.14
66385;BME280;53426;55.872;37.462;2023-05-09T08:19:29;100686.63;;;19.49;16.96
66385;BME280;53426;55.872;37.462;2023-05-09T08:21:55;100667.94;;;19.22;17.11
66385;BME280;53426;55.872;37.462;2023-05-09T08:24:21;100685.09;;;19.03;17.67
66385;BME280;53426;55.872;37.462;2023-05-09T08:26:47;100670.84;;;18.67;17.56
66385;BME280;53426;55.872;37.462;2023-05-09T08:29:12;100699.75;;;18.73;17.21
66385;BME280;53426;55.872;37.462;2023-05-09T08:31:39;100644.53;;;18.53;17.49
66385;BME280;53426;55.872;37.462;2023-05-09T08:34:11;100696.50;;;19.05;17.65
66385;BME280;53426;55.872;37.462;2023-05-09T08:36:37;100682.84;;;19.16;17.89
66385;BME280;53426;55.872;37.462;2023-05-09T08:39:11;100669.00;;;21.38;16.38
66385;BME280;53426;55.872;37.462;2023-05-09T08:41:37;100679.28;;;23.80;14.30
66385;BME280;53426;55.872;37.462;2023-05-09T08:44:05;100667.81;;;25.21;13.50
66385;BME280;53426;55.872;37.462;2023-05-09T08:46:36;100667.59;;;26.74;12.20
66385;BME280;53426;55.872;37.462;2023-05-09T08:49:08;100641.72;;;27.30;11.85
66385;BME280;53426;55.872;37.462;2023-05-09T08:51:35;100655.03;;;27.78;11.39
66385;BME280;53426;55.872;37.462;2023-05-09T08:54:02;100657.44;;;25.87;11.55
66385;BME280;53426;55.872;37.462;2023-05-09T09:02:28;100667.28;;;22.92;13.80
66385;BME280;53426;55.872;37.462;2023-05-09T09:04:54;100647.50;;;22.24;14.11
66385;BME280;53426;55.872;37.462;2023-05-09T09:07:21;100650.75;;;21.64;14.97
66385;BME280;53426;55.872;37.462;2023-05-09T09:09:49;100656.53;;;21.12;15.08
66385;BME280;53426;55.872;37.462;2023-05-09T09:12:21;100641.03;;;20.58;15.67
66385;BME280;53426;55.872;37.462;2023-05-09T09:14:53;100650.94;;;20.41;15.63
66385;BME280;53426;55.872;37.462;2023-05-09T09:17:24;100646.72;;;19.88;16.10
66385;BME280;53426;55.872;37.462;2023-05-09T09:19:58;100650.59;;;19.34;16.99
66385;BME280;53426;55.872;37.462;2023-05-09T09:22:31;100635.81;;;18.87;17.50
66385;BME280;53426;55.872;37.462;2023-05-09T09:25:02;100632.44;;;18.49;17.56
66385;BME280;53426;55.872;37.462;2023-05-09T09:27:30;100646.66;;;18.32;17.95
66385;BME280;53426;55.872;37.462;2023-05-09T09:30:11;100647.81;;;18.02;18.25
66385;BME280;53426;55.872;37.462;2023-05-09T09:32:37;100650.63;;;17.83;18.29
66385;BME280;53426;55.872;37.462;2023-05-09T09:35:07;100644.94;;;17.86;18.01
66385;BME280;53426;55.872;37.462;2023-05-09T09:37:35;100642.97;;;17.51;18.22
66385;BME280;53426;55.872;37.462;2023-05-09T09:40:02;100639.44;;;17.60;18.29
66385;BME280;53426;55.872;37.462;2023-05-09T09:42:47;100643.88;;;18.24;17.29
66385;BME280;53426;55.872;37.462;2023-05-09T09:45:18;100634.72;;;20.17;16.62
66385;BME280;53426;55.872;37.462;2023-05-09T09:47:46;100628.53;;;22.09;15.04
66385;BME280;53426;55.872;37.462;2023-05-09T09:50:17;100634.88;;;24.03;13.74
66385;BME280;53426;55.872;37.462;2023-05-09T09:52:53;100640.88;;;25.48;12.64
66385;BME280;53426;55.872;37.462;2023-05-09T09:55:22;100625.00;;;27.14;12.46
66385;BME280;53426;55.872;37.462;2023-05-09T09:57:50;100606.88;;;28.36;10.77
66385;BME280;53426;55.872;37.462;2023-05-09T10:00:18;100618.97;;;29.03;10.02
66385;BME280;53426;55.872;37.462;2023-05-09T10:02:55;100626.03;;;29.78;9.97
66385;BME280;53426;55.872;37.462;2023-05-09T10:05:28;100619.34;;;30.11;9.19
66385;BME280;53426;55.872;37.462;2023-05-09T10:10:32;100606.44;;;26.17;10.97
66385;BME280;53426;55.872;37.462;2023-05-09T10:13:10;100591.91;;;25.21;11.64
66385;BME280;53426;55.872;37.462;2023-05-09T10:15:40;100599.19;;;24.93;11.93
66385;BME280;53426;55.872;37.462;2023-05-09T10:18:09;100614.41;;;25.50;11.81
66385;BME280;53426;55.872;37.462;2023-05-09T10:20:36;100605.28;;;24.95;12.12
66385;BME280;53426;55.872;37.462;2023-05-09T10:23:05;100608.75;;;24.46;12.24
66385;BME280;53426;55.872;37.462;2023-05-09T10:28:34;100610.91;;;22.44;13.94
66385;BME280;53426;55.872;37.462;2023-05-09T10:31:13;100606.00;;;21.86;14.93
66385;BME280;53426;55.872;37.462;2023-05-09T10:33:50;100606.72;;;21.24;15.64
66385;BME280;53426;55.872;37.462;2023-05-09T10:36:20;100602.84;;;20.38;15.93
66385;BME280;53426;55.872;37.462;2023-05-09T10:38:47;100575.16;;;19.53;16.31
66385;BME280;53426;55.872;37.462;2023-05-09T10:41:15;100608.06;;;18.78;16.94
66385;BME280;53426;55.872;37.462;2023-05-09T10:43:44;100584.81;;;18.33;17.57
66385;BME280;53426;55.872;37.462;2023-05-09T10:46:13;100600.84;;;18.43;17.41
66385;BME280;53426;55.872;37.462;2023-05-09T10:48:40;100595.50;;;18.43;17.29
66385;BME280;53426;55.872;37.462;2023-05-09T10:51:11;100602.91;;;18.14;17.22
66385;BME280;53426;55.872;37.462;2023-05-09T10:53:45;100591.75;;;17.91;17.74
66385;BME280;53426;55.872;37.462;2023-05-09T11:03:57;100511.00;;;18.21;17.80
66385;BME280;53426;55.872;37.462;2023-05-09T11:06:39;100577.84;;;18.40;17.31
66385;BME280;53426;55.872;37.462;2023-05-09T11:12:00;100571.09;;;17.83;17.61
66385;BME280;53426;55.872;37.462;2023-05-09T11:14:47;100417.84;;;16.80;17.95
66385;BME280;53426;55.872;37.462;2023-05-09T11:17:27;100568.25;;;17.21;18.92
66385;BME280;53426;55.872;37.462;2023-05-09T11:20:05;100441.19;;;16.31;18.87
66385;BME280;53426;55.872;37.462;2023-05-09T11:22:40;100544.63;;;16.97;18.88
66385;BME280;53426;55.872;37.462;2023-05-09T11:25:09;100517.66;;;16.81;18.50
66385;BME280;53426;55.872;37.462;2023-05-09T11:27:49;100547.91;;;16.81;18.81
66385;BME280;53426;55.872;37.462;2023-05-09T11:30:18;100525.28;;;16.66;18.65
66385;BME280;53426;55.872;37.462;2023-05-09T11:36:31;100535.13;;;16.56;18.87
66385;BME280;53426;55.872;37.462;2023-05-09T11:39:03;100509.25;;;16.56;18.81
66385;BME280;53426;55.872;37.462;2023-05-09T11:41:30;100495.47;;;16.61;18.57
66385;BME280;53426;55.872;37.462;2023-05-09T11:47:30;100406.28;;;16.89;18.81
66385;BME280;53426;55.872;37.462;2023-05-09T11:49:56;100497.47;;;17.33;18.86
66385;BME280;53426;55.872;37.462;2023-05-09T11:52:22;100489.38;;;17.42;18.86
66385;BME280;53426;55.872;37.462;2023-05-09T11:54:48;100471.69;;;17.32;18.83
66385;BME280;53426;55.872;37.462;2023-05-09T11:57:15;100465.09;;;17.26;18.54
66385;BME280;53426;55.872;37.462;2023-05-09T11:59:44;100453.13;;;17.48;18.28
66385;BME280;53426;55.872;37.462;2023-05-09T12:05:54;100481.00;;;17.82;17.94
66385;BME280;53426;55.872;37.462;2023-05-09T12:09:03;100498.28;;;17.88;18.17
66385;BME280;53426;55.872;37.462;2023-05-09T12:12:22;100464.63;;;17.03;18.24
66385;BME280;53426;55.872;37.462;2023-05-09T12:14:52;100465.75;;;17.10;18.10
66385;BME280;53426;55.872;37.462;2023-05-09T12:17:18;100481.28;;;16.97;18.48
66385;BME280;53426;55.872;37.462;2023-05-09T12:19:51;100427.28;;;16.18;18.90
66385;BME280;53426;55.872;37.462;2023-05-09T12:22:19;100405.81;;;15.72;19.23
66385;BME280;53426;55.872;37.462;2023-05-09T12:24:51;100449.38;;;15.72;19.77
66385;BME280;53426;55.872;37.462;2023-05-09T12:27:21;100495.34;;;15.95;20.19
66385;BME280;53426;55.872;37.462;2023-05-09T12:29:47;100413.06;;;15.31;21.01
66385;BME280;53426;55.872;37.462;2023-05-09T12:32:17;100460.97;;;15.42;21.17
66385;BME280;53426;55.872;37.462;2023-05-09T12:34:43;100459.41;;;15.40;21.60
66385;BME280;53426;55.872;37.462;2023-05-09T12:37:17;100479.16;;;15.58;21.47
66385;BME280;53426;55.872;37.462;2023-05-09T12:40:08;100484.75;;;15.55;21.21
66385;BME280;53426;55.872;37.462;2023-05-09T12:42:38;100475.53;;;15.38;21.30
66385;BME280;53426;55.872;37.462;2023-05-09T12:49:20;100451.50;;;15.29;20.74
66385;BME280;53426;55.872;37.462;2023-05-09T12:51:48;100462.78;;;15.32;20.94
66385;BME280;53426;55.872;37.462;2023-05-09T12:54:28;100469.81;;;15.43;20.90
66385;BME280;53426;55.872;37.462;2023-05-09T12:56:55;100460.81;;;15.34;21.31
66385;BME280;53426;55.872;37.462;2023-05-09T12:59:26;100465.84;;;15.28;21.38
66385;BME280;53426;55.872;37.462;2023-05-09T13:01:55;100464.84;;;15.19;22.12
66385;BME280;53426;55.872;37.462;2023-05-09T13:04:24;100441.59;;;15.00;22.32
66385;BME280;53426;55.872;37.462;2023-05-09T13:06:53;100440.47;;;14.93;21.86
66385;BME280;53426;55.872;37.462;2023-05-09T13:09:21;100420.53;;;14.88;21.92
66385;BME280;53426;55.872;37.462;2023-05-09T13:11:49;100443.38;;;15.21;21.39
66385;BME280;53426;55.872;37.462;2023-05-09T13:14:16;100399.94;;;15.09;20.95
66385;BME280;53426;55.872;37.462;2023-05-09T13:16:43;100442.13;;;15.34;20.89
66385;BME280;53426;55.872;37.462;2023-05-09T13:19:09;100421.50;;;15.36;21.01
66385;BME280;53426;55.872;37.462;2023-05-09T13:21:35;100425.13;;;15.45;21.21
66385;BME280;53426;55.872;37.462;2023-05-09T13:24:02;100434.19;;;15.54;20.90
66385;BME280;53426;55.872;37.462;2023-05-09T13:26:31;100425.47;;;15.52;21.65
66385;BME280;53426;55.872;37.462;2023-05-09T13:28:58;100428.31;;;15.69;21.35
66385;BME280;53426;55.872;37.462;2023-05-09T13:31:24;100421.28;;;15.78;21.05
66385;BME280;53426;55.872;37.462;2023-05-09T13:33:50;100412.28;;;15.79;20.65
66385;BME280;53426;55.872;37.462;2023-05-09T13:36:16;100404.53;;;15.66;20.56
66385;BME280;53426;55.872;37.462;2023-05-09T13:38:42;100414.97;;;15.60;21.33
66385;BME280;53426;55.872;37.462;2023-05-09T13:41:10;100427.16;;;15.53;21.21
66385;BME280;53426;55.872;37.462;2023-05-09T13:43:37;100404.22;;;15.50;21.19
66385;BME280;53426;55.872;37.462;2023-05-09T13:46:03;100412.84;;;15.54;21.35
66385;BME280;53426;55.872;37.462;2023-05-09T13:48:29;100399.03;;;15.48;21.32
66385;BME280;53426;55.872;37.462;2023-05-09T13:50:55;100401.03;;;15.56;21.10
66385;BME280;53426;55.872;37.462;2023-05-09T13:53:22;100385.00;;;15.56;20.71
66385;BME280;53426;55.872;37.462;2023-05-09T13:55:48;100399.78;;;15.70;20.13
66385;BME280;53426;55.872;37.462;2023-05-09T13:58:13;100390.91;;;15.79;20.46
66385;BME280;53426;55.872;37.462;2023-05-09T14:00:39;100359.72;;;15.60;20.54
66385;BME280;53426;55.872;37.462;2023-05-09T14:03:07;100387.97;;;15.72;20.67